sensor_id;sensor_type;location;lat;lon;timestamp;P1;durP1;ratioP1;P2;durP2;ratioP2
26690;SDS011;14307;51.718;8.938;2024-02-21T00:00:55;42.20;;;22.27;;
26690;SDS011;14307;51.718;8.938;2024-02-21T00:03:22;44.15;;;23.02;;
26690;SDS011;14307;51.718;8.938;2024-02-21T00:05:49;46.97;;;25.00;;
26690;SDS011;14307;51.718;8.938;2024-02-21T00:08:18;38.38;;;21.98;;
26690;SDS011;14307;51.718;8.938;2024-02-21T00:10:45;44.17;;;23.70;;
26690;SDS011;14307;51.718;8.938;2024-02-21T00:13:12;44.47;;;22.88;;
26690;SDS011;14307;51.718;8.938;2024-02-21T00:15:40;42.35;;;23.95;;
26690;SDS011;14307;51.718;8.938;2024-02-21T00:18:06;59.50;;;24.83;;
26690;SDS011;14307;51.718;8.938;2024-02-21T00:20:33;44.00;;;22.17;;
26690;SDS011;14307;51.718;8.938;2024-02-21T00:23:00;47.15;;;23.45;;
26690;SDS011;14307;51.718;8.938;2024-02-21T00:25:27;52.30;;;23.85;;
26690;SDS011;14307;51.718;8.938;2024-02-21T00:27:54;49.53;;;24.63;;
26690;SDS011;14307;51.718;8.938;2024-02-21T00:30:21;36.40;;;19.83;;
26690;SDS011;14307;51.718;8.938;2024-02-21T00:32:48;55.83;;;25.10;;
26690;SDS011;14307;51.718;8.938;2024-02-21T00:35:15;51.40;;;22.75;;
26690;SDS011;14307;51.718;8.938;2024-02-21T00:37:41;55.45;;;25.00;;
26690;SDS011;14307;51.718;8.938;2024-02-21T00:40:09;59.92;;;24.63;;
26690;SDS011;14307;51.718;8.938;2024-02-21T00:42:36;48.90;;;24.95;;
26690;SDS011;14307;51.718;8.938;2024-02-21T00:45:03;48.90;;;24.92;;
26690;SDS011;14307;51.718;8.938;2024-02-21T00:47:30;56.00;;;26.48;;
26690;SDS011;14307;51.718;8.938;2024-02-21T00:49:57;54.25;;;25.02;;
26690;SDS011;14307;51.718;8.938;2024-02-21T00:52:24;42.28;;;24.77;;
26690;SDS011;14307;51.718;8.938;2024-02-21T00:54:51;53.20;;;25.13;;
26690;SDS011;14307;51.718;8.938;2024-02-21T00:57:20;49.42;;;25.73;;
26690;SDS011;14307;51.718;8.938;2024-02-21T00:59:47;58.75;;;26.52;;
26690;SDS011;14307;51.718;8.938;2024-02-21T01:02:14;46.67;;;24.42;;
26690;SDS011;14307;51.718;8.938;2024-02-21T01:04:41;52.20;;;24.48;;
26690;SDS011;14307;51.718;8.938;2024-02-21T01:07:08;51.85;;;26.75;;
26690;SDS011;14307;51.718;8.938;2024-02-21T01:09:34;55.03;;;26.25;;
26690;SDS011;14307;51.718;8.938;2024-02-21T01:12:01;60.70;;;28.05;;
26690;SDS011;14307;51.718;8.938;2024-02-21T01:14:28;52.45;;;25.95;;
26690;SDS011;14307;51.718;8.938;2024-02-21T01:16:57;44.88;;;25.67;;
26690;SDS011;14307;51.718;8.938;2024-02-21T01:19:24;49.10;;;27.70;;
26690;SDS011;14307;51.718;8.938;2024-02-21T01:21:51;46.10;;;26.20;;
26690;SDS011;14307;51.718;8.938;2024-02-21T01:24:18;54.35;;;26.42;;
26690;SDS011;14307;51.718;8.938;2024-02-21T01:26:45;47.80;;;23.70;;
26690;SDS011;14307;51.718;8.938;2024-02-21T01:29:13;42.38;;;23.52;;
26690;SDS011;14307;51.718;8.938;2024-02-21T01:31:39;54.58;;;25.65;;
26690;SDS011;14307;51.718;8.938;2024-02-21T01:34:06;49.45;;;24.73;;
26690;SDS011;14307;51.718;8.938;2024-02-21T01:36:33;49.53;;;26.45;;
26690;SDS011;14307;51.718;8.938;2024-02-21T01:39:01;51.90;;;26.73;;
26690;SDS011;14307;51.718;8.938;2024-02-21T01:41:31;58.38;;;29.10;;
26690;SDS011;14307;51.718;8.938;2024-02-21T01:43:58;49.90;;;24.77;;
26690;SDS011;14307;51.718;8.938;2024-02-21T01:46:26;42.90;;;25.50;;
26690;SDS011;14307;51.718;8.938;2024-02-21T01:48:55;61.28;;;27.95;;
26690;SDS011;14307;51.718;8.938;2024-02-21T01:51:24;50.60;;;27.23;;
26690;SDS011;14307;51.718;8.938;2024-02-21T01:53:51;46.53;;;26.83;;
26690;SDS011;14307;51.718;8.938;2024-02-21T01:56:22;48.63;;;26.15;;
26690;SDS011;14307;51.718;8.938;2024-02-21T01:58:49;49.38;;;27.52;;
26690;SDS011;14307;51.718;8.938;2024-02-21T02:01:17;45.90;;;27.10;;
26690;SDS011;14307;51.718;8.938;2024-02-21T02:03:47;45.45;;;25.10;;
26690;SDS011;14307;51.718;8.938;2024-02-21T02:06:15;50.72;;;26.08;;
26690;SDS011;14307;51.718;8.938;2024-02-21T02:08:42;49.13;;;27.52;;
26690;SDS011;14307;51.718;8.938;2024-02-21T02:11:09;47.53;;;25.42;;
26690;SDS011;14307;51.718;8.938;2024-02-21T02:13:37;44.70;;;26.38;;
26690;SDS011;14307;51.718;8.938;2024-02-21T02:16:04;47.55;;;26.38;;
26690;SDS011;14307;51.718;8.938;2024-02-21T02:18:31;41.78;;;23.33;;
26690;SDS011;14307;51.718;8.938;2024-02-21T02:20:58;37.13;;;22.50;;
26690;SDS011;14307;51.718;8.938;2024-02-21T02:23:31;42.08;;;25.83;;
26690;SDS011;14307;51.718;8.938;2024-02-21T02:25:58;50.63;;;24.98;;
26690;SDS011;14307;51.718;8.938;2024-02-21T02:28:27;45.63;;;24.50;;
26690;SDS011;14307;51.718;8.938;2024-02-21T02:30:54;48.58;;;26.50;;
26690;SDS011;14307;51.718;8.938;2024-02-21T02:33:20;43.95;;;25.55;;
26690;SDS011;14307;51.718;8.938;2024-02-21T02:35:47;43.88;;;25.27;;
26690;SDS011;14307;51.718;8.938;2024-02-21T02:38:14;48.72;;;26.90;;
26690;SDS011;14307;51.718;8.938;2024-02-21T02:40:41;41.25;;;24.52;;
26690;SDS011;14307;51.718;8.938;2024-02-21T02:43:09;41.45;;;25.42;;
26690;SDS011;14307;51.718;8.938;2024-02-21T02:45:36;49.95;;;26.38;;
26690;SDS011;14307;51.718;8.938;2024-02-21T02:48:03;36.97;;;23.42;;
26690;SDS011;14307;51.718;8.938;2024-02-21T02:50:31;40.92;;;24.20;;
26690;SDS011;14307;51.718;8.938;2024-02-21T02:52:58;45.47;;;25.23;;
26690;SDS011;14307;51.718;8.938;2024-02-21T02:55:27;43.38;;;23.90;;
26690;SDS011;14307;51.718;8.938;2024-02-21T02:57:54;39.30;;;23.85;;
26690;SDS011;14307;51.718;8.938;2024-02-21T03:00:22;44.85;;;25.38;;
26690;SDS011;14307;51.718;8.938;2024-02-21T03:02:49;39.60;;;25.30;;
26690;SDS011;14307;51.718;8.938;2024-02-21T03:05:20;43.05;;;25.80;;
26690;SDS011;14307;51.718;8.938;2024-02-21T03:07:48;46.75;;;25.25;;
26690;SDS011;14307;51.718;8.938;2024-02-21T03:10:15;39.97;;;23.95;;
26690;SDS011;14307;51.718;8.938;2024-02-21T03:12:44;46.60;;;24.80;;
26690;SDS011;14307;51.718;8.938;2024-02-21T03:15:11;46.00;;;25.70;;
26690;SDS011;14307;51.718;8.938;2024-02-21T03:17:38;44.67;;;26.15;;
26690;SDS011;14307;51.718;8.938;2024-02-21T03:20:05;39.25;;;23.92;;
26690;SDS011;14307;51.718;8.938;2024-02-21T03:22:38;37.85;;;24.00;;
26690;SDS011;14307;51.718;8.938;2024-02-21T03:25:07;38.17;;;24.50;;
26690;SDS011;14307;51.718;8.938;2024-02-21T03:27:35;43.60;;;26.83;;
26690;SDS011;14307;51.718;8.938;2024-02-21T03:30:02;44.30;;;24.85;;
26690;SDS011;14307;51.718;8.938;2024-02-21T03:32:30;38.78;;;24.67;;
26690;SDS011;14307;51.718;8.938;2024-02-21T03:34:57;37.17;;;24.92;;
26690;SDS011;14307;51.718;8.938;2024-02-21T03:37:24;38.97;;;24.15;;
26690;SDS011;14307;51.718;8.938;2024-02-21T03:39:51;36.33;;;23.45;;
26690;SDS011;14307;51.718;8.938;2024-02-21T03:42:18;29.83;;;21.23;;
26690;SDS011;14307;51.718;8.938;2024-02-21T03:44:44;41.22;;;26.13;;
26690;SDS011;14307;51.718;8.938;2024-02-21T03:47:11;40.25;;;25.60;;
26690;SDS011;14307;51.718;8.938;2024-02-21T03:49:38;31.38;;;21.90;;
26690;SDS011;14307;51.718;8.938;2024-02-21T03:52:06;41.90;;;24.92;;
26690;SDS011;14307;51.718;8.938;2024-02-21T03:54:33;40.47;;;24.15;;
26690;SDS011;14307;51.718;8.938;2024-02-21T03:56:59;40.08;;;25.15;;
26690;SDS011;14307;51.718;8.938;2024-02-21T03:59:27;30.48;;;22.90;;
26690;SDS011;14307;51.718;8.938;2024-02-21T04:01:54;35.28;;;24.95;;
26690;SDS011;14307;51.718;8.938;2024-02-21T04:04:21;32.35;;;24.67;;
26690;SDS011;14307;51.718;8.938;2024-02-21T04:06:49;35.53;;;23.98;;
26690;SDS011;14307;51.718;8.938;2024-02-21T04:09:16;36.90;;;24.83;;
26690;SDS011;14307;51.718;8.938;2024-02-21T04:11:43;35.35;;;25.38;;
26690;SDS011;14307;51.718;8.938;2024-02-21T04:14:11;32.80;;;23.13;;
26690;SDS011;14307;51.718;8.938;2024-02-21T04:16:38;33.25;;;24.75;;
26690;SDS011;14307;51.718;8.938;2024-02-21T04:19:06;33.35;;;24.95;;
26690;SDS011;14307;51.718;8.938;2024-02-21T04:21:34;27.65;;;24.48;;
26690;SDS011;14307;51.718;8.938;2024-02-21T04:24:01;37.00;;;25.73;;
26690;SDS011;14307;51.718;8.938;2024-02-21T04:26:31;34.08;;;24.67;;
26690;SDS011;14307;51.718;8.938;2024-02-21T04:28:58;31.70;;;22.45;;
26690;SDS011;14307;51.718;8.938;2024-02-21T04:31:25;31.88;;;23.25;;
26690;SDS011;14307;51.718;8.938;2024-02-21T04:33:51;36.13;;;24.33;;
26690;SDS011;14307;51.718;8.938;2024-02-21T04:36:18;25.88;;;22.08;;
26690;SDS011;14307;51.718;8.938;2024-02-21T04:38:45;27.60;;;22.00;;
26690;SDS011;14307;51.718;8.938;2024-02-21T04:41:12;30.90;;;22.98;;
26690;SDS011;14307;51.718;8.938;2024-02-21T04:43:39;35.15;;;26.88;;
26690;SDS011;14307;51.718;8.938;2024-02-21T04:46:09;27.67;;;23.17;;
26690;SDS011;14307;51.718;8.938;2024-02-21T04:48:36;33.92;;;24.08;;
26690;SDS011;14307;51.718;8.938;2024-02-21T04:51:03;31.88;;;23.67;;
26690;SDS011;14307;51.718;8.938;2024-02-21T04:53:30;32.05;;;22.75;;
26690;SDS011;14307;51.718;8.938;2024-02-21T04:55:56;30.98;;;23.90;;
26690;SDS011;14307;51.718;8.938;2024-02-21T04:58:23;30.90;;;23.85;;
26690;SDS011;14307;51.718;8.938;2024-02-21T05:00:51;27.90;;;23.13;;
26690;SDS011;14307;51.718;8.938;2024-02-21T05:03:19;31.80;;;22.98;;
26690;SDS011;14307;51.718;8.938;2024-02-21T05:05:46;27.92;;;22.98;;
26690;SDS011;14307;51.718;8.938;2024-02-21T05:08:13;31.73;;;24.15;;
26690;SDS011;14307;51.718;8.938;2024-02-21T05:10:42;28.30;;;22.17;;
26690;SDS011;14307;51.718;8.938;2024-02-21T05:13:10;28.55;;;21.88;;
26690;SDS011;14307;51.718;8.938;2024-02-21T05:15:36;28.90;;;23.15;;
26690;SDS011;14307;51.718;8.938;2024-02-21T05:18:03;32.53;;;22.88;;
26690;SDS011;14307;51.718;8.938;2024-02-21T05:20:30;34.97;;;24.15;;
26690;SDS011;14307;51.718;8.938;2024-02-21T05:22:57;39.13;;;24.90;;
26690;SDS011;14307;51.718;8.938;2024-02-21T05:25:25;28.55;;;23.80;;
26690;SDS011;14307;51.718;8.938;2024-02-21T05:27:52;31.73;;;23.85;;
26690;SDS011;14307;51.718;8.938;2024-02-21T05:30:20;31.83;;;24.65;;
26690;SDS011;14307;51.718;8.938;2024-02-21T05:32:46;29.77;;;23.33;;
26690;SDS011;14307;51.718;8.938;2024-02-21T05:35:13;30.15;;;23.35;;
26690;SDS011;14307;51.718;8.938;2024-02-21T05:37:40;36.83;;;24.90;;
26690;SDS011;14307;51.718;8.938;2024-02-21T05:40:12;31.73;;;24.45;;
26690;SDS011;14307;51.718;8.938;2024-02-21T05:42:39;44.13;;;26.20;;
26690;SDS011;14307;51.718;8.938;2024-02-21T05:45:06;33.28;;;24.23;;
26690;SDS011;14307;51.718;8.938;2024-02-21T05:47:33;32.90;;;24.40;;
26690;SDS011;14307;51.718;8.938;2024-02-21T05:50:00;34.13;;;24.15;;
26690;SDS011;14307;51.718;8.938;2024-02-21T05:52:27;33.38;;;23.95;;
26690;SDS011;14307;51.718;8.938;2024-02-21T05:54:54;33.47;;;24.80;;
26690;SDS011;14307;51.718;8.938;2024-02-21T05:57:21;35.15;;;25.40;;
26690;SDS011;14307;51.718;8.938;2024-02-21T05:59:48;34.55;;;25.98;;
26690;SDS011;14307;51.718;8.938;2024-02-21T06:02:14;35.83;;;26.80;;
26690;SDS011;14307;51.718;8.938;2024-02-21T06:04:41;37.35;;;25.33;;
26690;SDS011;14307;51.718;8.938;2024-02-21T06:07:09;34.05;;;26.25;;
26690;SDS011;14307;51.718;8.938;2024-02-21T06:09:36;33.88;;;24.10;;
26690;SDS011;14307;51.718;8.938;2024-02-21T06:12:03;30.95;;;25.70;;
26690;SDS011;14307;51.718;8.938;2024-02-21T06:14:30;38.03;;;26.98;;
26690;SDS011;14307;51.718;8.938;2024-02-21T06:16:57;34.03;;;25.05;;
26690;SDS011;14307;51.718;8.938;2024-02-21T06:19:24;35.45;;;26.20;;
26690;SDS011;14307;51.718;8.938;2024-02-21T06:21:51;34.00;;;26.75;;
26690;SDS011;14307;51.718;8.938;2024-02-21T06:24:19;31.40;;;24.67;;
26690;SDS011;14307;51.718;8.938;2024-02-21T06:26:45;32.35;;;25.25;;
26690;SDS011;14307;51.718;8.938;2024-02-21T06:29:12;33.22;;;25.35;;
26690;SDS011;14307;51.718;8.938;2024-02-21T06:31:40;36.13;;;26.17;;
26690;SDS011;14307;51.718;8.938;2024-02-21T06:34:09;35.80;;;26.85;;
26690;SDS011;14307;51.718;8.938;2024-02-21T06:36:36;36.55;;;25.98;;
26690;SDS011;14307;51.718;8.938;2024-02-21T06:39:03;32.55;;;24.42;;
26690;SDS011;14307;51.718;8.938;2024-02-21T06:41:33;32.78;;;25.42;;
26690;SDS011;14307;51.718;8.938;2024-02-21T06:44:01;28.55;;;23.70;;
26690;SDS011;14307;51.718;8.938;2024-02-21T06:46:29;35.45;;;24.73;;
26690;SDS011;14307;51.718;8.938;2024-02-21T06:48:56;32.75;;;25.42;;
26690;SDS011;14307;51.718;8.938;2024-02-21T06:51:24;30.38;;;26.27;;
26690;SDS011;14307;51.718;8.938;2024-02-21T06:53:51;32.38;;;24.40;;
26690;SDS011;14307;51.718;8.938;2024-02-21T06:56:19;29.52;;;23.88;;
26690;SDS011;14307;51.718;8.938;2024-02-21T06:58:46;34.42;;;25.73;;
26690;SDS011;14307;51.718;8.938;2024-02-21T07:01:15;33.45;;;26.58;;
26690;SDS011;14307;51.718;8.938;2024-02-21T07:03:42;28.50;;;23.73;;
26690;SDS011;14307;51.718;8.938;2024-02-21T07:06:09;39.17;;;25.05;;
26690;SDS011;14307;51.718;8.938;2024-02-21T07:08:36;29.52;;;24.20;;
26690;SDS011;14307;51.718;8.938;2024-02-21T07:11:03;32.92;;;24.27;;
26690;SDS011;14307;51.718;8.938;2024-02-21T07:13:31;29.70;;;25.15;;
26690;SDS011;14307;51.718;8.938;2024-02-21T07:15:58;30.80;;;24.02;;
26690;SDS011;14307;51.718;8.938;2024-02-21T07:18:26;39.05;;;28.42;;
26690;SDS011;14307;51.718;8.938;2024-02-21T07:20:53;31.52;;;28.20;;
26690;SDS011;14307;51.718;8.938;2024-02-21T07:23:20;32.63;;;28.02;;
26690;SDS011;14307;51.718;8.938;2024-02-21T07:25:47;35.17;;;27.90;;
26690;SDS011;14307;51.718;8.938;2024-02-21T07:28:13;29.95;;;26.73;;
26690;SDS011;14307;51.718;8.938;2024-02-21T07:30:43;29.00;;;25.73;;
26690;SDS011;14307;51.718;8.938;2024-02-21T07:33:10;29.30;;;26.48;;
26690;SDS011;14307;51.718;8.938;2024-02-21T07:35:36;29.73;;;26.65;;
26690;SDS011;14307;51.718;8.938;2024-02-21T07:38:04;30.67;;;27.15;;
26690;SDS011;14307;51.718;8.938;2024-02-21T07:40:31;30.77;;;27.38;;
26690;SDS011;14307;51.718;8.938;2024-02-21T07:42:58;32.30;;;28.85;;
26690;SDS011;14307;51.718;8.938;2024-02-21T07:45:26;29.75;;;26.83;;
26690;SDS011;14307;51.718;8.938;2024-02-21T07:47:53;30.85;;;27.58;;
26690;SDS011;14307;51.718;8.938;2024-02-21T07:50:20;32.53;;;27.85;;
26690;SDS011;14307;51.718;8.938;2024-02-21T07:52:47;32.72;;;29.05;;
26690;SDS011;14307;51.718;8.938;2024-02-21T07:55:13;33.78;;;30.48;;
26690;SDS011;14307;51.718;8.938;2024-02-21T07:57:40;37.80;;;32.05;;
26690;SDS011;14307;51.718;8.938;2024-02-21T08:00:07;36.63;;;30.15;;
26690;SDS011;14307;51.718;8.938;2024-02-21T08:02:43;30.75;;;27.65;;
26690;SDS011;14307;51.718;8.938;2024-02-21T08:05:10;31.33;;;27.83;;
26690;SDS011;14307;51.718;8.938;2024-02-21T08:07:38;30.75;;;27.75;;
26690;SDS011;14307;51.718;8.938;2024-02-21T08:10:06;33.67;;;30.35;;
26690;SDS011;14307;51.718;8.938;2024-02-21T08:12:34;34.72;;;31.58;;
26690;SDS011;14307;51.718;8.938;2024-02-21T08:15:02;38.63;;;29.35;;
26690;SDS011;14307;51.718;8.938;2024-02-21T08:17:34;33.28;;;29.73;;
26690;SDS011;14307;51.718;8.938;2024-02-21T08:20:01;34.72;;;31.23;;
26690;SDS011;14307;51.718;8.938;2024-02-21T08:22:29;33.65;;;30.55;;
26690;SDS011;14307;51.718;8.938;2024-02-21T08:24:56;33.42;;;29.25;;
26690;SDS011;14307;51.718;8.938;2024-02-21T08:27:23;32.40;;;29.15;;
26690;SDS011;14307;51.718;8.938;2024-02-21T08:29:49;32.83;;;29.48;;
26690;SDS011;14307;51.718;8.938;2024-02-21T08:32:16;32.88;;;29.48;;
26690;SDS011;14307;51.718;8.938;2024-02-21T08:34:45;30.42;;;27.73;;
26690;SDS011;14307;51.718;8.938;2024-02-21T08:37:12;33.13;;;29.75;;
26690;SDS011;14307;51.718;8.938;2024-02-21T08:39:39;32.45;;;29.33;;
26690;SDS011;14307;51.718;8.938;2024-02-21T08:42:06;35.03;;;31.45;;
26690;SDS011;14307;51.718;8.938;2024-02-21T08:44:33;33.92;;;31.00;;
26690;SDS011;14307;51.718;8.938;2024-02-21T08:47:00;34.10;;;30.90;;
26690;SDS011;14307;51.718;8.938;2024-02-21T08:49:30;36.47;;;33.45;;
26690;SDS011;14307;51.718;8.938;2024-02-21T08:52:01;34.35;;;31.17;;
26690;SDS011;14307;51.718;8.938;2024-02-21T08:54:29;35.63;;;31.98;;
26690;SDS011;14307;51.718;8.938;2024-02-21T08:56:56;34.75;;;31.88;;
26690;SDS011;14307;51.718;8.938;2024-02-21T08:59:23;36.17;;;32.97;;
26690;SDS011;14307;51.718;8.938;2024-02-21T09:01:50;34.67;;;31.65;;
26690;SDS011;14307;51.718;8.938;2024-02-21T09:04:18;34.72;;;31.52;;
26690;SDS011;14307;51.718;8.938;2024-02-21T09:06:49;32.53;;;29.90;;
26690;SDS011;14307;51.718;8.938;2024-02-21T09:09:16;35.33;;;32.40;;
26690;SDS011;14307;51.718;8.938;2024-02-21T09:11:43;33.80;;;31.13;;
26690;SDS011;14307;51.718;8.938;2024-02-21T09:14:10;35.53;;;32.88;;
26690;SDS011;14307;51.718;8.938;2024-02-21T09:16:37;34.55;;;31.52;;
26690;SDS011;14307;51.718;8.938;2024-02-21T09:19:03;34.42;;;31.20;;
26690;SDS011;14307;51.718;8.938;2024-02-21T09:21:30;31.23;;;28.40;;
26690;SDS011;14307;51.718;8.938;2024-02-21T09:23:57;31.65;;;29.17;;
26690;SDS011;14307;51.718;8.938;2024-02-21T09:26:26;34.85;;;32.33;;
26690;SDS011;14307;51.718;8.938;2024-02-21T09:28:53;38.72;;;35.45;;
26690;SDS011;14307;51.718;8.938;2024-02-21T09:31:20;33.72;;;30.85;;
26690;SDS011;14307;51.718;8.938;2024-02-21T09:33:47;37.92;;;34.60;;
26690;SDS011;14307;51.718;8.938;2024-02-21T09:36:14;38.28;;;34.55;;
26690;SDS011;14307;51.718;8.938;2024-02-21T09:38:41;39.45;;;35.95;;
26690;SDS011;14307;51.718;8.938;2024-02-21T09:43:34;44.17;;;39.05;;
26690;SDS011;14307;51.718;8.938;2024-02-21T09:46:06;41.65;;;37.33;;
26690;SDS011;14307;51.718;8.938;2024-02-21T09:48:42;39.95;;;35.88;;
26690;SDS011;14307;51.718;8.938;2024-02-21T09:51:34;40.70;;;36.85;;
26690;SDS011;14307;51.718;8.938;2024-02-21T09:54:02;43.42;;;38.80;;
26690;SDS011;14307;51.718;8.938;2024-02-21T09:56:41;41.20;;;37.03;;
26690;SDS011;14307;51.718;8.938;2024-02-21T09:59:11;40.72;;;36.70;;
26690;SDS011;14307;51.718;8.938;2024-02-21T10:01:38;42.05;;;37.50;;
26690;SDS011;14307;51.718;8.938;2024-02-21T10:04:05;40.00;;;36.47;;
26690;SDS011;14307;51.718;8.938;2024-02-21T10:06:32;40.47;;;36.45;;
26690;SDS011;14307;51.718;8.938;2024-02-21T10:09:01;37.10;;;33.42;;
26690;SDS011;14307;51.718;8.938;2024-02-21T10:11:27;37.03;;;33.30;;
26690;SDS011;14307;51.718;8.938;2024-02-21T10:14:07;36.97;;;33.42;;
26690;SDS011;14307;51.718;8.938;2024-02-21T10:16:34;34.60;;;31.35;;
26690;SDS011;14307;51.718;8.938;2024-02-21T10:19:01;37.63;;;33.70;;
26690;SDS011;14307;51.718;8.938;2024-02-21T10:21:30;34.08;;;30.98;;
26690;SDS011;14307;51.718;8.938;2024-02-21T10:23:56;36.05;;;32.53;;
26690;SDS011;14307;51.718;8.938;2024-02-21T10:26:23;37.28;;;33.53;;
26690;SDS011;14307;51.718;8.938;2024-02-21T10:28:50;35.75;;;32.25;;
26690;SDS011;14307;51.718;8.938;2024-02-21T10:31:21;32.92;;;29.75;;
26690;SDS011;14307;51.718;8.938;2024-02-21T10:33:54;34.40;;;31.15;;
26690;SDS011;14307;51.718;8.938;2024-02-21T10:36:22;34.22;;;31.08;;
26690;SDS011;14307;51.718;8.938;2024-02-21T10:38:53;33.15;;;29.67;;
26690;SDS011;14307;51.718;8.938;2024-02-21T10:41:23;33.75;;;30.30;;
26690;SDS011;14307;51.718;8.938;2024-02-21T10:43:51;34.28;;;31.23;;
26690;SDS011;14307;51.718;8.938;2024-02-21T10:46:23;33.45;;;30.27;;
26690;SDS011;14307;51.718;8.938;2024-02-21T10:49:01;30.77;;;28.27;;
26690;SDS011;14307;51.718;8.938;2024-02-21T10:51:36;29.02;;;26.17;;
26690;SDS011;14307;51.718;8.938;2024-02-21T10:57:03;27.48;;;25.08;;
26690;SDS011;14307;51.718;8.938;2024-02-21T10:59:31;29.55;;;26.80;;
26690;SDS011;14307;51.718;8.938;2024-02-21T11:01:59;29.05;;;26.23;;
26690;SDS011;14307;51.718;8.938;2024-02-21T11:04:26;28.42;;;26.25;;
26690;SDS011;14307;51.718;8.938;2024-02-21T11:06:55;28.15;;;25.65;;
26690;SDS011;14307;51.718;8.938;2024-02-21T11:09:29;29.58;;;26.83;;
26690;SDS011;14307;51.718;8.938;2024-02-21T11:12:02;27.75;;;25.13;;
26690;SDS011;14307;51.718;8.938;2024-02-21T11:14:30;29.50;;;26.75;;
26690;SDS011;14307;51.718;8.938;2024-02-21T11:19:45;29.05;;;26.45;;
26690;SDS011;14307;51.718;8.938;2024-02-21T11:22:18;28.45;;;25.90;;
26690;SDS011;14307;51.718;8.938;2024-02-21T11:24:48;28.20;;;25.65;;
26690;SDS011;14307;51.718;8.938;2024-02-21T11:27:16;28.10;;;25.70;;
26690;SDS011;14307;51.718;8.938;2024-02-21T11:29:54;28.10;;;25.80;;
26690;SDS011;14307;51.718;8.938;2024-02-21T11:32:23;26.95;;;24.48;;
26690;SDS011;14307;51.718;8.938;2024-02-21T11:37:34;30.67;;;27.92;;
26690;SDS011;14307;51.718;8.938;2024-02-21T11:40:05;27.42;;;25.05;;
26690;SDS011;14307;51.718;8.938;2024-02-21T11:42:38;27.80;;;25.63;;
26690;SDS011;14307;51.718;8.938;2024-02-21T11:45:05;27.58;;;24.95;;
26690;SDS011;14307;51.718;8.938;2024-02-21T11:47:33;29.58;;;27.02;;
26690;SDS011;14307;51.718;8.938;2024-02-21T11:50:00;29.80;;;27.23;;
26690;SDS011;14307;51.718;8.938;2024-02-21T11:52:28;29.35;;;27.45;;
26690;SDS011;14307;51.718;8.938;2024-02-21T11:54:55;28.65;;;26.27;;
26690;SDS011;14307;51.718;8.938;2024-02-21T11:57:31;31.52;;;28.85;;
26690;SDS011;14307;51.718;8.938;2024-02-21T11:59:58;30.60;;;28.45;;
26690;SDS011;14307;51.718;8.938;2024-02-21T12:02:30;32.22;;;29.27;;
26690;SDS011;14307;51.718;8.938;2024-02-21T12:04:57;31.80;;;28.58;;
26690;SDS011;14307;51.718;8.938;2024-02-21T12:07:24;30.15;;;27.85;;
26690;SDS011;14307;51.718;8.938;2024-02-21T12:09:51;31.02;;;28.80;;
26690;SDS011;14307;51.718;8.938;2024-02-21T12:12:21;31.75;;;29.48;;
26690;SDS011;14307;51.718;8.938;2024-02-21T12:14:53;30.92;;;28.65;;
26690;SDS011;14307;51.718;8.938;2024-02-21T12:17:22;31.20;;;28.92;;
26690;SDS011;14307;51.718;8.938;2024-02-21T12:19:50;29.58;;;27.58;;
26690;SDS011;14307;51.718;8.938;2024-02-21T12:22:20;28.98;;;26.98;;
26690;SDS011;14307;51.718;8.938;2024-02-21T12:24:47;30.35;;;27.80;;
26690;SDS011;14307;51.718;8.938;2024-02-21T12:27:15;29.40;;;27.25;;
26690;SDS011;14307;51.718;8.938;2024-02-21T12:29:42;29.92;;;27.77;;
26690;SDS011;14307;51.718;8.938;2024-02-21T12:32:09;28.15;;;25.85;;
26690;SDS011;14307;51.718;8.938;2024-02-21T12:34:36;28.95;;;26.77;;
26690;SDS011;14307;51.718;8.938;2024-02-21T12:37:18;28.02;;;25.77;;
26690;SDS011;14307;51.718;8.938;2024-02-21T12:39:47;29.33;;;26.95;;
26690;SDS011;14307;51.718;8.938;2024-02-21T12:42:14;29.38;;;26.77;;
26690;SDS011;14307;51.718;8.938;2024-02-21T12:44:41;26.42;;;24.63;;
26690;SDS011;14307;51.718;8.938;2024-02-21T12:47:09;29.52;;;27.08;;
26690;SDS011;14307;51.718;8.938;2024-02-21T12:49:36;28.98;;;26.58;;
26690;SDS011;14307;51.718;8.938;2024-02-21T12:52:07;29.27;;;26.90;;
26690;SDS011;14307;51.718;8.938;2024-02-21T12:54:34;28.35;;;25.75;;
26690;SDS011;14307;51.718;8.938;2024-02-21T12:57:01;30.98;;;27.98;;
26690;SDS011;14307;51.718;8.938;2024-02-21T12:59:29;28.80;;;26.27;;
26690;SDS011;14307;51.718;8.938;2024-02-21T13:01:56;28.27;;;26.17;;
26690;SDS011;14307;51.718;8.938;2024-02-21T13:04:23;27.65;;;25.45;;
26690;SDS011;14307;51.718;8.938;2024-02-21T13:06:54;27.27;;;25.00;;
26690;SDS011;14307;51.718;8.938;2024-02-21T13:09:21;27.10;;;24.52;;
26690;SDS011;14307;51.718;8.938;2024-02-21T13:11:48;26.60;;;24.55;;
26690;SDS011;14307;51.718;8.938;2024-02-21T13:14:17;28.40;;;26.08;;
26690;SDS011;14307;51.718;8.938;2024-02-21T13:16:44;29.00;;;26.67;;
26690;SDS011;14307;51.718;8.938;2024-02-21T13:19:11;29.52;;;27.20;;
26690;SDS011;14307;51.718;8.938;2024-02-21T13:21:40;30.75;;;28.25;;
26690;SDS011;14307;51.718;8.938;2024-02-21T13:24:08;31.08;;;28.52;;
26690;SDS011;14307;51.718;8.938;2024-02-21T13:26:35;31.23;;;28.70;;
26690;SDS011;14307;51.718;8.938;2024-02-21T13:29:02;31.95;;;29.38;;
26690;SDS011;14307;51.718;8.938;2024-02-21T13:31:29;28.52;;;26.50;;
26690;SDS011;14307;51.718;8.938;2024-02-21T13:33:56;30.52;;;27.60;;
26690;SDS011;14307;51.718;8.938;2024-02-21T13:36:23;30.55;;;27.88;;
26690;SDS011;14307;51.718;8.938;2024-02-21T13:38:50;31.67;;;29.02;;
26690;SDS011;14307;51.718;8.938;2024-02-21T13:41:17;28.80;;;26.35;;
26690;SDS011;14307;51.718;8.938;2024-02-21T13:43:44;30.45;;;27.40;;
26690;SDS011;14307;51.718;8.938;2024-02-21T13:46:13;29.70;;;27.17;;
26690;SDS011;14307;51.718;8.938;2024-02-21T13:48:40;28.67;;;26.15;;
26690;SDS011;14307;51.718;8.938;2024-02-21T13:51:07;30.70;;;27.95;;
26690;SDS011;14307;51.718;8.938;2024-02-21T13:53:34;28.95;;;26.75;;
26690;SDS011;14307;51.718;8.938;2024-02-21T13:56:01;31.63;;;29.15;;
26690;SDS011;14307;51.718;8.938;2024-02-21T13:58:28;32.42;;;29.77;;
26690;SDS011;14307;51.718;8.938;2024-02-21T14:00:55;32.15;;;29.45;;
26690;SDS011;14307;51.718;8.938;2024-02-21T14:03:23;31.75;;;29.40;;
26690;SDS011;14307;51.718;8.938;2024-02-21T14:05:52;33.08;;;30.08;;
26690;SDS011;14307;51.718;8.938;2024-02-21T14:08:18;32.90;;;30.25;;
26690;SDS011;14307;51.718;8.938;2024-02-21T14:10:45;31.42;;;29.10;;
26690;SDS011;14307;51.718;8.938;2024-02-21T14:13:13;31.10;;;28.17;;
26690;SDS011;14307;51.718;8.938;2024-02-21T14:15:41;33.03;;;30.70;;
26690;SDS011;14307;51.718;8.938;2024-02-21T14:18:12;32.03;;;29.48;;
26690;SDS011;14307;51.718;8.938;2024-02-21T14:20:39;31.45;;;29.23;;
26690;SDS011;14307;51.718;8.938;2024-02-21T14:23:06;33.42;;;31.00;;
26690;SDS011;14307;51.718;8.938;2024-02-21T14:25:33;31.35;;;29.15;;
26690;SDS011;14307;51.718;8.938;2024-02-21T14:28:01;35.05;;;31.90;;
26690;SDS011;14307;51.718;8.938;2024-02-21T14:30:27;33.05;;;30.50;;
26690;SDS011;14307;51.718;8.938;2024-02-21T14:32:54;33.90;;;31.05;;
26690;SDS011;14307;51.718;8.938;2024-02-21T14:35:21;32.30;;;29.83;;